createdAt,value
2024-02-28T00:00:57.992Z,22.27
2024-02-28T00:03:27.228Z,18.38
2024-02-28T00:05:56.143Z,20.90
2024-02-28T00:08:24.391Z,19.65
2024-02-28T00:10:51.155Z,22.37
2024-02-28T00:13:18.019Z,23.25
2024-02-28T00:15:46.895Z,23.90
2024-02-28T00:18:13.869Z,22.70
2024-02-28T00:20:48.435Z,21.98
2024-02-28T00:23:19.016Z,20.60
2024-02-28T00:25:51.043Z,21.02
2024-02-28T00:28:21.718Z,20.17
2024-02-28T00:30:59.355Z,21.00
2024-02-28T00:33:26.031Z,20.80
2024-02-28T00:35:54.684Z,20.00
2024-02-28T00:38:21.422Z,22.80
2024-02-28T00:40:48.189Z,22.48
2024-02-28T00:43:15.073Z,24.35
2024-02-28T00:45:41.901Z,26.17
2024-02-28T00:48:08.948Z,21.53
2024-02-28T00:50:35.899Z,24.23
2024-02-28T00:53:03.769Z,24.42
2024-02-28T00:55:31.795Z,22.42
2024-02-28T00:58:00.742Z,19.55
2024-02-28T01:00:27.741Z,22.37
2024-02-28T01:02:54.557Z,21.95
2024-02-28T01:05:23.728Z,22.20
2024-02-28T01:07:57.562Z,22.85
2024-02-28T01:10:28.932Z,24.35
2024-02-28T01:12:55.915Z,24.03
2024-02-28T01:15:26.920Z,21.65
2024-02-28T01:17:55.914Z,23.67
2024-02-28T01:20:22.744Z,21.50
2024-02-28T01:22:49.418Z,22.98
2024-02-28T01:25:18.414Z,23.37
2024-02-28T01:27:50.019Z,18.90
2024-02-28T01:30:16.848Z,20.13
2024-02-28T01:32:47.117Z,22.40
2024-02-28T01:35:14.693Z,20.27
2024-02-28T01:37:41.461Z,22.10
2024-02-28T01:40:09.049Z,20.98
2024-02-28T01:42:39.021Z,22.52
2024-02-28T01:45:08.289Z,21.40
2024-02-28T01:47:35.152Z,22.95
2024-02-28T01:50:02.126Z,27.60
2024-02-28T01:52:28.870Z,26.77
2024-02-28T01:54:55.717Z,27.77
2024-02-28T01:57:26.592Z,28.33
2024-02-28T01:59:55.908Z,34.75
2024-02-28T02:02:25.139Z,34.50
2024-02-28T02:04:54.160Z,33.53
2024-02-28T02:07:21.783Z,35.30
2024-02-28T02:09:48.656Z,29.27
2024-02-28T02:12:16.953Z,60.38
2024-02-28T02:15:03.709Z,29.73
2024-02-28T02:17:33.336Z,39.05
2024-02-28T02:23:09.773Z,36.17
2024-02-28T02:25:52.214Z,27.02
2024-02-28T02:28:24.136Z,36.00
2024-02-28T02:30:51.088Z,31.85
2024-02-28T02:33:18.056Z,43.80
2024-02-28T02:35:55.671Z,36.10
2024-02-28T02:38:27.143Z,30.63
2024-02-28T02:40:54.416Z,40.17
2024-02-28T02:43:23.915Z,24.15
2024-02-28T02:46:08.597Z,21.70
2024-02-28T02:48:40.621Z,20.77
2024-02-28T02:51:09.766Z,22.25
2024-02-28T02:53:36.560Z,21.13
2024-02-28T02:56:08.161Z,20.88
2024-02-28T02:58:34.902Z,21.30
2024-02-28T03:01:04.283Z,20.20
2024-02-28T03:03:35.928Z,18.27
2024-02-28T03:06:02.752Z,21.70
2024-02-28T03:08:29.506Z,21.48
2024-02-28T03:10:59.621Z,23.50
2024-02-28T03:13:26.456Z,20.83
2024-02-28T03:15:53.233Z,20.23
2024-02-28T03:18:20.253Z,18.13
2024-02-28T03:20:48.141Z,20.23
2024-02-28T03:23:19.403Z,19.05
2024-02-28T03:25:46.447Z,18.90
2024-02-28T03:28:13.189Z,19.42
2024-02-28T03:30:59.844Z,19.60
2024-02-28T03:33:30.558Z,16.17
2024-02-28T03:35:57.424Z,16.80
2024-02-28T03:38:24.176Z,18.75
2024-02-28T03:40:50.849Z,17.67
2024-02-28T03:43:17.585Z,19.10
2024-02-28T03:45:44.408Z,20.27
2024-02-28T03:48:11.316Z,19.17
2024-02-28T03:50:40.348Z,19.05
2024-02-28T03:53:07.066Z,19.15
2024-02-28T03:55:33.847Z,15.93
2024-02-28T03:58:00.619Z,19.00
2024-02-28T04:00:27.629Z,19.15
2024-02-28T04:02:54.444Z,18.58
2024-02-28T04:05:21.176Z,18.02
2024-02-28T04:07:47.879Z,18.63
2024-02-28T04:10:16.489Z,17.17
2024-02-28T04:12:45.282Z,19.20
2024-02-28T04:15:15.974Z,21.98
2024-02-28T04:17:43.503Z,19.75
2024-02-28T04:20:12.195Z,18.30
2024-02-28T04:22:39.135Z,19.25
2024-02-28T04:25:07.199Z,19.65
2024-02-28T04:27:33.986Z,20.10
2024-02-28T04:30:09.945Z,19.42
2024-02-28T04:32:37.587Z,21.83
2024-02-28T04:35:04.602Z,21.63
2024-02-28T04:37:31.284Z,17.92
2024-02-28T04:39:57.973Z,19.60
2024-02-28T04:42:24.762Z,23.67
2024-02-28T04:44:51.348Z,20.87
2024-02-28T04:47:20.044Z,19.30
2024-02-28T04:49:48.453Z,19.70
2024-02-28T04:52:15.165Z,19.35
2024-02-28T04:54:42.128Z,18.65
2024-02-28T04:57:09.235Z,17.33
2024-02-28T04:59:35.833Z,18.52
2024-02-28T05:02:02.557Z,15.52
2024-02-28T05:04:30.290Z,15.90
2024-02-28T05:07:02.816Z,17.25
2024-02-28T05:09:29.543Z,15.33
2024-02-28T05:11:56.483Z,17.98
2024-02-28T05:14:23.111Z,19.25
2024-02-28T05:16:49.762Z,16.27
2024-02-28T05:19:18.994Z,17.20
2024-02-28T05:21:46.507Z,17.10
2024-02-28T05:24:14.761Z,18.23
2024-02-28T05:26:41.441Z,13.88
2024-02-28T05:29:09.065Z,15.15
2024-02-28T05:31:37.381Z,16.52
2024-02-28T05:34:04.079Z,17.63
2024-02-28T05:36:31.572Z,15.57
2024-02-28T05:38:59.450Z,16.40
2024-02-28T05:41:26.247Z,15.80
2024-02-28T05:43:53.113Z,16.63
2024-02-28T05:46:20.672Z,16.40
2024-02-28T05:48:47.907Z,15.18
2024-02-28T05:51:14.990Z,16.63
2024-02-28T05:53:43.553Z,16.77
2024-02-28T05:56:18.034Z,14.35
2024-02-28T05:58:45.796Z,17.33
2024-02-28T06:01:13.147Z,15.25
2024-02-28T06:03:39.992Z,15.75
2024-02-28T06:06:25.255Z,15.77
2024-02-28T06:08:51.901Z,16.02
2024-02-28T06:11:18.475Z,15.37
2024-02-28T06:13:45.075Z,14.98
2024-02-28T06:16:16.499Z,13.75
2024-02-28T06:18:43.441Z,15.25
2024-02-28T06:21:10.275Z,15.85
2024-02-28T06:23:37.087Z,17.87
2024-02-28T06:26:03.924Z,16.35
2024-02-28T06:28:30.859Z,14.43
2024-02-28T06:30:57.578Z,16.08
2024-02-28T06:33:24.405Z,15.35
2024-02-28T06:35:51.124Z,15.23
2024-02-28T06:38:17.903Z,17.38
2024-02-28T06:40:44.616Z,16.48
2024-02-28T06:43:11.272Z,13.90
2024-02-28T06:45:43.757Z,17.30
2024-02-28T06:48:13.241Z,16.33
2024-02-28T06:50:42.652Z,16.80
2024-02-28T06:53:09.546Z,20.23
2024-02-28T06:55:36.303Z,14.15
2024-02-28T06:58:03.093Z,17.27
2024-02-28T07:00:29.841Z,15.80
2024-02-28T07:02:56.614Z,13.93
2024-02-28T07:05:23.447Z,16.10
2024-02-28T07:07:50.109Z,17.85
2024-02-28T07:10:17.983Z,16.73
2024-02-28T07:12:44.786Z,15.80
2024-02-28T07:15:11.546Z,17.75
2024-02-28T07:17:38.266Z,17.50
2024-02-28T07:20:05.745Z,19.80
2024-02-28T07:22:32.480Z,17.38
2024-02-28T07:25:33.828Z,15.50
2024-02-28T07:28:03.790Z,17.17
2024-02-28T07:30:32.789Z,17.00
2024-02-28T07:33:02.034Z,15.63
2024-02-28T07:35:36.870Z,15.70
2024-02-28T07:38:03.697Z,14.33
2024-02-28T07:46:31.077Z,18.50
2024-02-28T07:48:58.446Z,21.83
2024-02-28T07:51:58.664Z,20.77
2024-02-28T07:55:44.801Z,17.73
2024-02-28T07:57:23.575Z,17.67
2024-02-28T07:59:52.468Z,15.65
2024-02-28T08:02:21.326Z,16.38
2024-02-28T08:04:48.220Z,15.03
2024-02-28T08:07:36.846Z,17.65
2024-02-28T08:10:29.496Z,17.00
2024-02-28T08:13:42.819Z,13.68
2024-02-28T08:16:53.249Z,15.00
2024-02-28T08:22:11.995Z,16.55
2024-02-28T08:24:39.265Z,15.95
2024-02-28T08:27:06.661Z,15.90
2024-02-28T08:29:36.717Z,14.63
2024-02-28T08:32:08.176Z,14.63
2024-02-28T08:34:37.544Z,15.48
2024-02-28T08:37:17.085Z,13.75
2024-02-28T08:39:43.894Z,14.63
2024-02-28T08:42:13.498Z,15.80
2024-02-28T08:44:40.658Z,14.70
2024-02-28T08:47:31.828Z,17.63
2024-02-28T08:50:05.272Z,15.38
2024-02-28T08:52:35.505Z,13.88
2024-02-28T08:55:02.192Z,15.40
2024-02-28T08:57:31.304Z,20.63
2024-02-28T09:00:32.404Z,16.00
2024-02-28T09:03:03.008Z,15.80
2024-02-28T09:05:29.788Z,17.85
2024-02-28T09:07:57.981Z,16.02
2024-02-28T09:10:32.481Z,16.33
2024-02-28T09:13:01.441Z,15.88
2024-02-28T09:15:34.002Z,15.57
2024-02-28T09:18:02.144Z,14.52
2024-02-28T09:20:28.902Z,15.18
2024-02-28T09:23:00.996Z,17.23
2024-02-28T09:25:31.692Z,20.17
2024-02-28T09:27:58.672Z,17.50
2024-02-28T09:30:30.134Z,19.10
2024-02-28T09:33:02.660Z,19.80
2024-02-28T09:35:29.254Z,20.20
2024-02-28T09:37:55.924Z,20.80
2024-02-28T09:40:33.160Z,22.67
2024-02-28T09:43:04.794Z,22.20
2024-02-28T09:45:36.126Z,19.63
2024-02-28T09:48:04.745Z,21.47
2024-02-28T09:50:31.548Z,23.20
2024-02-28T09:53:06.250Z,20.95
2024-02-28T09:55:37.458Z,23.98
2024-02-28T09:58:05.123Z,23.50
2024-02-28T10:00:32.570Z,27.13
2024-02-28T10:03:00.226Z,20.52
2024-02-28T10:05:29.851Z,20.52
2024-02-28T10:07:56.540Z,21.67
2024-02-28T10:10:23.552Z,20.02
2024-02-28T10:12:52.863Z,22.37
2024-02-28T10:15:19.633Z,20.40
2024-02-28T10:17:46.396Z,19.35
2024-02-28T10:20:14.341Z,23.38
2024-02-28T10:22:41.051Z,21.08
2024-02-28T10:25:10.255Z,19.67
2024-02-28T10:27:37.137Z,22.20
2024-02-28T10:30:07.695Z,19.35
2024-02-28T10:32:37.890Z,21.42
2024-02-28T10:35:10.508Z,20.50
2024-02-28T10:37:39.974Z,19.47
2024-02-28T10:40:07.773Z,19.83
2024-02-28T10:42:35.014Z,20.75
2024-02-28T10:45:10.930Z,17.23
2024-02-28T10:47:49.420Z,20.70
2024-02-28T10:50:26.608Z,20.40
2024-02-28T10:53:01.982Z,21.98
2024-02-28T10:55:41.390Z,21.15
2024-02-28T10:58:10.736Z,19.85
2024-02-28T11:00:40.106Z,21.83
2024-02-28T11:03:08.167Z,22.37
2024-02-28T11:05:37.882Z,22.40
2024-02-28T11:08:05.532Z,23.35
2024-02-28T11:10:35.198Z,22.77
2024-02-28T11:13:12.135Z,20.25
2024-02-28T11:15:38.805Z,21.97
2024-02-28T11:18:11.088Z,21.42
2024-02-28T11:20:38.845Z,20.95
2024-02-28T11:23:07.682Z,23.35
2024-02-28T11:25:34.327Z,21.95
2024-02-28T11:28:01.544Z,22.17
2024-02-28T11:30:28.358Z,22.73
2024-02-28T11:32:56.741Z,24.27
2024-02-28T11:35:26.784Z,22.77
2024-02-28T11:37:59.770Z,21.48
2024-02-28T11:40:29.045Z,23.27
2024-02-28T11:43:00.571Z,25.38
2024-02-28T11:45:27.480Z,20.95
2024-02-28T11:47:54.295Z,18.45
2024-02-28T11:50:22.091Z,17.70
2024-02-28T11:52:57.648Z,21.00
2024-02-28T11:55:27.392Z,20.90
2024-02-28T11:57:54.397Z,21.63
2024-02-28T12:00:24.385Z,22.65
2024-02-28T12:02:53.148Z,19.70
2024-02-28T12:05:26.276Z,21.47
2024-02-28T12:07:57.165Z,21.00
2024-02-28T12:10:29.988Z,22.67
2024-02-28T12:13:03.144Z,22.80
2024-02-28T12:15:34.524Z,24.02
2024-02-28T12:18:09.534Z,26.27
2024-02-28T12:23:19.438Z,23.48
2024-02-28T12:25:46.293Z,21.00
2024-02-28T12:28:14.152Z,24.25
2024-02-28T12:30:43.581Z,24.03
2024-02-28T12:33:13.162Z,24.00
2024-02-28T12:35:40.023Z,22.42
2024-02-28T12:38:10.663Z,19.35
2024-02-28T12:40:40.135Z,20.77
2024-02-28T12:43:07.620Z,20.73
2024-02-28T12:45:34.513Z,21.75
2024-02-28T12:48:03.010Z,20.33
2024-02-28T12:50:30.037Z,18.10
2024-02-28T12:53:17.154Z,16.05
2024-02-28T12:55:45.923Z,19.47
2024-02-28T12:58:13.807Z,20.20
2024-02-28T13:00:40.919Z,20.85
2024-02-28T13:03:07.665Z,22.90
2024-02-28T13:05:34.392Z,21.38
2024-02-28T13:08:01.098Z,19.57
2024-02-28T13:10:27.938Z,21.75
2024-02-28T13:12:54.594Z,20.65
2024-02-28T13:15:21.138Z,19.90
2024-02-28T13:17:51.681Z,20.95
2024-02-28T13:20:18.386Z,19.00
2024-02-28T13:22:45.335Z,22.13
2024-02-28T13:25:15.231Z,20.23
2024-02-28T13:27:42.033Z,17.38
2024-02-28T13:30:09.096Z,19.55
2024-02-28T13:32:35.603Z,15.93
2024-02-28T13:35:02.378Z,16.40
2024-02-28T13:37:28.947Z,20.48
2024-02-28T13:39:55.530Z,17.05
2024-02-28T13:42:22.810Z,17.80
2024-02-28T13:44:49.456Z,18.50
2024-02-28T13:47:16.030Z,21.80
2024-02-28T13:49:42.914Z,20.23
2024-02-28T13:52:09.857Z,20.42
2024-02-28T13:54:36.631Z,18.05
2024-02-28T13:57:05.040Z,17.80
2024-02-28T13:59:32.281Z,19.02
2024-02-28T14:02:01.141Z,18.38
2024-02-28T14:04:33.563Z,17.83
2024-02-28T14:07:00.143Z,18.70
2024-02-28T14:09:27.854Z,16.70
2024-02-28T14:11:54.399Z,18.45
2024-02-28T14:14:21.024Z,19.08
2024-02-28T14:16:47.543Z,18.13
2024-02-28T14:19:14.358Z,20.13
2024-02-28T14:21:41.074Z,20.70
2024-02-28T14:24:08.812Z,20.90
2024-02-28T14:26:35.452Z,19.92
2024-02-28T14:29:02.151Z,19.55
2024-02-28T14:31:28.726Z,18.27
2024-02-28T14:33:55.838Z,18.53
2024-02-28T14:36:22.760Z,19.13
2024-02-28T14:38:49.423Z,17.17
2024-02-28T14:41:16.131Z,18.45
2024-02-28T14:43:42.701Z,15.95
2024-02-28T14:46:11.250Z,18.03
2024-02-28T14:48:38.169Z,20.17
2024-02-28T14:51:05.535Z,15.45
2024-02-28T14:53:32.007Z,20.27
2024-02-28T14:56:00.339Z,17.40
2024-02-28T14:58:27.544Z,15.77
2024-02-28T15:00:55.877Z,17.73
2024-02-28T15:03:22.572Z,15.77
2024-02-28T15:05:51.873Z,16.52
2024-02-28T15:08:18.714Z,16.73
2024-02-28T15:10:45.594Z,14.70
2024-02-28T15:13:12.252Z,14.88
2024-02-28T15:15:42.453Z,12.25
2024-02-28T15:21:12.295Z,14.38
2024-02-28T15:23:38.929Z,15.57
2024-02-28T15:26:05.538Z,13.63
2024-02-28T15:28:32.258Z,16.08
2024-02-28T15:30:59.514Z,14.63
2024-02-28T15:33:26.283Z,13.10
2024-02-28T15:35:52.945Z,12.87
2024-02-28T15:38:19.940Z,14.50
2024-02-28T15:40:46.469Z,14.90
2024-02-28T15:43:12.978Z,16.30
2024-02-28T15:45:40.724Z,15.95
2024-02-28T15:48:07.955Z,17.83
2024-02-28T15:50:34.712Z,15.98
2024-02-28T15:53:01.262Z,15.75
2024-02-28T15:55:28.006Z,17.98
2024-02-28T15:57:56.460Z,18.90
2024-02-28T16:00:23.450Z,15.13
2024-02-28T16:02:50.249Z,15.02
2024-02-28T16:05:17.101Z,18.40
2024-02-28T16:07:44.694Z,19.58
2024-02-28T16:10:11.428Z,16.27
2024-02-28T16:12:38.214Z,17.67
2024-02-28T16:15:04.939Z,19.80
2024-02-28T16:17:33.355Z,18.13
2024-02-28T16:19:59.991Z,16.83
2024-02-28T16:22:26.529Z,16.67
2024-02-28T16:24:53.298Z,21.87
2024-02-28T16:27:19.835Z,20.98
2024-02-28T16:29:46.436Z,16.52
2024-02-28T16:32:12.933Z,16.10
2024-02-28T16:34:40.914Z,15.88
2024-02-28T16:37:07.814Z,15.53
2024-02-28T16:39:34.650Z,19.35
2024-02-28T16:42:01.365Z,16.02
2024-02-28T16:44:27.882Z,16.75
2024-02-28T16:46:54.454Z,18.25
2024-02-28T16:49:21.935Z,19.10
2024-02-28T16:51:48.587Z,19.30
2024-02-28T16:54:15.380Z,19.15
2024-02-28T16:56:42.027Z,20.17
2024-02-28T16:59:10.954Z,19.42
2024-02-28T17:01:37.594Z,16.50
2024-02-28T17:04:04.260Z,17.67
2024-02-28T17:06:31.922Z,15.93
2024-02-28T17:08:58.504Z,19.63
2024-02-28T17:11:25.193Z,19.17
2024-02-28T17:13:51.742Z,17.77
2024-02-28T17:16:18.749Z,16.80
2024-02-28T17:18:46.072Z,17.42
2024-02-28T17:21:12.580Z,17.70
2024-02-28T17:23:39.159Z,16.63
2024-02-28T17:26:06.133Z,17.73
2024-02-28T17:28:32.589Z,18.20
2024-02-28T17:30:59.567Z,20.60
2024-02-28T17:33:27.364Z,23.02
2024-02-28T17:35:54.126Z,19.27
2024-02-28T17:38:20.995Z,13.97
2024-02-28T17:40:47.833Z,19.17
2024-02-28T17:43:14.567Z,17.88
2024-02-28T17:45:41.188Z,24.10
2024-02-28T17:48:08.353Z,16.35
2024-02-28T17:50:35.075Z,18.53
2024-02-28T17:53:01.729Z,17.88
2024-02-28T17:55:29.037Z,15.63
2024-02-28T17:57:55.636Z,15.57
2024-02-28T18:00:26.780Z,17.10
2024-02-28T18:02:55.131Z,17.13
2024-02-28T18:05:24.420Z,19.63
2024-02-28T18:07:53.672Z,18.20
2024-02-28T18:10:20.510Z,16.95
2024-02-28T18:12:47.025Z,19.65
2024-02-28T18:15:13.997Z,17.57
2024-02-28T18:17:40.474Z,18.40
2024-02-28T18:20:10.328Z,15.85
2024-02-28T18:22:37.065Z,13.52
2024-02-28T18:25:05.165Z,14.70
2024-02-28T18:27:33.748Z,15.90
2024-02-28T18:30:00.894Z,16.00
2024-02-28T18:32:28.109Z,15.95
2024-02-28T18:34:54.623Z,13.82
2024-02-28T18:37:22.622Z,17.67
2024-02-28T18:39:49.134Z,15.60
2024-02-28T18:42:15.696Z,16.48
2024-02-28T18:44:42.209Z,16.33
2024-02-28T18:47:08.710Z,15.85
2024-02-28T18:49:35.928Z,17.70
2024-02-28T18:52:04.348Z,18.20
2024-02-28T18:54:31.844Z,17.20
2024-02-28T18:56:59.046Z,15.52
2024-02-28T18:59:25.537Z,17.27
2024-02-28T19:01:54.478Z,16.17
2024-02-28T19:04:22.518Z,15.93
2024-02-28T19:06:52.186Z,16.23
2024-02-28T19:09:20.370Z,15.50
2024-02-28T19:11:48.402Z,16.13
2024-02-28T19:14:15.877Z,13.85
2024-02-28T19:16:43.065Z,15.03
2024-02-28T19:19:09.620Z,13.60
2024-02-28T19:21:40.133Z,15.95
2024-02-28T19:24:07.556Z,13.55
2024-02-28T19:26:34.165Z,12.88
2024-02-28T19:29:00.678Z,14.13
2024-02-28T19:31:27.279Z,11.93
2024-02-28T19:33:53.740Z,13.05
2024-02-28T19:36:21.539Z,15.20
2024-02-28T19:38:48.714Z,17.38
2024-02-28T19:41:15.853Z,14.93
2024-02-28T19:43:42.387Z,13.48
2024-02-28T19:46:09.314Z,12.30
2024-02-28T19:48:36.761Z,15.48
2024-02-28T19:51:03.868Z,12.60
2024-02-28T19:53:33.371Z,13.33
2024-02-28T19:56:00.262Z,12.35
2024-02-28T19:58:26.762Z,15.82
2024-02-28T20:00:53.409Z,12.60
2024-02-28T20:03:19.996Z,16.70
2024-02-28T20:05:47.370Z,16.97
2024-02-28T20:08:13.869Z,12.98
2024-02-28T20:10:40.533Z,15.63
2024-02-28T20:13:07.116Z,12.10
2024-02-28T20:15:33.808Z,13.68
2024-02-28T20:18:00.407Z,13.13
2024-02-28T20:20:26.982Z,16.40
2024-02-28T20:22:53.519Z,12.13
2024-02-28T20:25:21.495Z,13.55
2024-02-28T20:27:50.306Z,11.05
2024-02-28T20:30:17.387Z,10.40
2024-02-28T20:32:45.125Z,12.38
2024-02-28T20:35:12.299Z,10.88
2024-02-28T20:37:38.854Z,10.95
2024-02-28T20:40:07.246Z,11.23
2024-02-28T20:42:34.769Z,11.90
2024-02-28T20:45:02.276Z,11.30
2024-02-28T20:47:28.863Z,12.13
2024-02-28T20:49:55.391Z,11.18
2024-02-28T20:52:22.433Z,9.70
2024-02-28T20:54:49.083Z,12.47
2024-02-28T20:57:17.248Z,9.70
2024-02-28T20:59:45.704Z,10.40
2024-02-28T21:02:12.851Z,11.20
2024-02-28T21:04:42.267Z,9.85
2024-02-28T21:07:09.576Z,12.10
2024-02-28T21:09:36.913Z,9.52
2024-02-28T21:12:04.304Z,13.02
2024-02-28T21:14:30.836Z,11.20
2024-02-28T21:16:59.083Z,9.63
2024-02-28T21:19:26.605Z,13.13
2024-02-28T21:21:53.278Z,16.60
2024-02-28T21:24:19.820Z,30.15
2024-02-28T21:26:46.458Z,35.25
2024-02-28T21:29:13.094Z,38.67
2024-02-28T21:31:40.112Z,23.23
2024-02-28T21:34:06.718Z,43.33
2024-02-28T21:36:34.796Z,32.50
2024-02-28T21:39:02.408Z,14.52
2024-02-28T21:41:28.961Z,8.07
2024-02-28T21:43:57.449Z,8.93
2024-02-28T21:46:23.959Z,10.70
2024-02-28T21:48:56.512Z,10.60
2024-02-28T21:51:29.297Z,10.32
2024-02-28T21:53:55.772Z,8.73
2024-02-28T21:56:22.420Z,8.97
2024-02-28T21:58:48.979Z,10.07
2024-02-28T22:01:15.613Z,9.32
2024-02-28T22:03:42.250Z,11.02
2024-02-28T22:06:10.930Z,10.45
2024-02-28T22:08:37.766Z,11.10
2024-02-28T22:11:04.414Z,8.70
2024-02-28T22:13:31.193Z,9.30
2024-02-28T22:15:57.740Z,8.85
2024-02-28T22:18:24.218Z,10.40
2024-02-28T22:20:50.857Z,12.73
2024-02-28T22:23:17.373Z,11.07
2024-02-28T22:25:44.054Z,10.55
2024-02-28T22:28:11.476Z,17.63
2024-02-28T22:30:37.983Z,15.88
2024-02-28T22:33:04.740Z,17.77
2024-02-28T22:35:31.339Z,15.15
2024-02-28T22:37:57.816Z,27.00
2024-02-28T22:40:24.240Z,25.65
2024-02-28T22:42:50.916Z,14.25
2024-02-28T22:45:17.563Z,16.93
2024-02-28T22:47:45.090Z,30.10
2024-02-28T22:50:11.769Z,24.17
2024-02-28T22:52:38.297Z,42.85
2024-02-28T22:55:06.105Z,33.65
2024-02-28T22:57:32.771Z,25.90
2024-02-28T22:59:59.434Z,20.48
2024-02-28T23:02:25.922Z,18.42
2024-02-28T23:04:54.144Z,11.05
2024-02-28T23:07:21.092Z,15.80
2024-02-28T23:09:47.616Z,17.13
2024-02-28T23:12:15.339Z,15.85
2024-02-28T23:14:42.257Z,14.75
2024-02-28T23:17:08.711Z,11.40
2024-02-28T23:19:37.476Z,12.45
2024-02-28T23:22:04.093Z,12.53
2024-02-28T23:24:31.417Z,12.63
2024-02-28T23:26:58.565Z,14.93
2024-02-28T23:29:26.628Z,23.15
2024-02-28T23:31:54.779Z,18.15
2024-02-28T23:34:22.818Z,12.70
2024-02-28T23:36:50.907Z,24.23
2024-02-28T23:39:17.437Z,19.67
2024-02-28T23:41:46.849Z,15.82
2024-02-28T23:44:13.282Z,12.43
2024-02-28T23:46:39.779Z,12.50
2024-02-28T23:49:06.312Z,13.60
2024-02-28T23:51:33.340Z,13.15
2024-02-28T23:54:00.146Z,13.57
2024-02-28T23:56:26.642Z,12.20
2024-02-28T23:58:53.560Z,11.70
